sensor_id;sensor_type;location;lat;lon;timestamp;P1;durP1;ratioP1;P2;durP2;ratioP2
71083;SDS011;58741;52.672;13.548;2023-02-01T00:01:20;11.13;;;1.20;;
71083;SDS011;58741;52.672;13.548;2023-02-01T00:03:46;3.20;;;1.48;;
71083;SDS011;58741;52.672;13.548;2023-02-01T00:06:11;10.07;;;1.42;;
71083;SDS011;58741;52.672;13.548;2023-02-01T00:08:37;14.20;;;1.40;;
71083;SDS011;58741;52.672;13.548;2023-02-01T00:13:29;3.35;;;1.55;;
71083;SDS011;58741;52.672;13.548;2023-02-01T00:16:02;2.95;;;1.25;;
71083;SDS011;58741;52.672;13.548;2023-02-01T00:18:38;7.88;;;1.05;;
71083;SDS011;58741;52.672;13.548;2023-02-01T00:21:03;3.72;;;1.35;;
71083;SDS011;58741;52.672;13.548;2023-02-01T00:23:31;7.13;;;1.77;;
71083;SDS011;58741;52.672;13.548;2023-02-01T00:26:00;1.38;;;0.75;;
71083;SDS011;58741;52.672;13.548;2023-02-01T00:28:26;4.30;;;1.45;;
71083;SDS011;58741;52.672;13.548;2023-02-01T00:30:55;5.53;;;0.93;;
71083;SDS011;58741;52.672;13.548;2023-02-01T00:33:25;5.00;;;1.10;;
71083;SDS011;58741;52.672;13.548;2023-02-01T00:35:51;6.47;;;1.48;;
71083;SDS011;58741;52.672;13.548;2023-02-01T00:38:21;6.45;;;1.52;;
71083;SDS011;58741;52.672;13.548;2023-02-01T00:40:46;8.40;;;1.35;;
71083;SDS011;58741;52.672;13.548;2023-02-01T00:43:12;4.57;;;1.80;;
71083;SDS011;58741;52.672;13.548;2023-02-01T00:45:37;8.25;;;1.63;;
71083;SDS011;58741;52.672;13.548;2023-02-01T00:48:03;5.03;;;1.30;;
71083;SDS011;58741;52.672;13.548;2023-02-01T00:50:28;15.50;;;2.33;;
71083;SDS011;58741;52.672;13.548;2023-02-01T00:52:55;3.28;;;1.08;;
71083;SDS011;58741;52.672;13.548;2023-02-01T00:55:20;5.78;;;1.48;;
71083;SDS011;58741;52.672;13.548;2023-02-01T00:57:46;7.15;;;1.15;;
71083;SDS011;58741;52.672;13.548;2023-02-01T01:00:11;6.20;;;1.33;;
71083;SDS011;58741;52.672;13.548;2023-02-01T01:02:37;6.43;;;1.67;;
71083;SDS011;58741;52.672;13.548;2023-02-01T01:05:03;5.15;;;1.27;;
71083;SDS011;58741;52.672;13.548;2023-02-01T01:07:28;7.63;;;1.60;;
71083;SDS011;58741;52.672;13.548;2023-02-01T01:09:54;3.22;;;1.05;;
71083;SDS011;58741;52.672;13.548;2023-02-01T01:12:20;2.03;;;0.88;;
71083;SDS011;58741;52.672;13.548;2023-02-01T01:14:45;1.55;;;0.57;;
71083;SDS011;58741;52.672;13.548;2023-02-01T01:17:11;3.75;;;0.95;;
71083;SDS011;58741;52.672;13.548;2023-02-01T01:19:37;4.72;;;0.93;;
71083;SDS011;58741;52.672;13.548;2023-02-01T01:22:02;3.88;;;1.38;;
71083;SDS011;58741;52.672;13.548;2023-02-01T01:24:28;3.60;;;1.02;;
71083;SDS011;58741;52.672;13.548;2023-02-01T01:26:53;9.60;;;1.65;;
71083;SDS011;58741;52.672;13.548;2023-02-01T01:29:19;6.93;;;1.08;;
71083;SDS011;58741;52.672;13.548;2023-02-01T01:31:44;1.90;;;0.82;;
71083;SDS011;58741;52.672;13.548;2023-02-01T01:34:10;11.68;;;1.40;;
71083;SDS011;58741;52.672;13.548;2023-02-01T01:36:36;2.85;;;1.00;;
71083;SDS011;58741;52.672;13.548;2023-02-01T01:39:01;2.75;;;1.23;;
71083;SDS011;58741;52.672;13.548;2023-02-01T01:41:30;3.35;;;1.08;;
71083;SDS011;58741;52.672;13.548;2023-02-01T01:44:02;4.20;;;0.90;;
71083;SDS011;58741;52.672;13.548;2023-02-01T01:46:31;3.45;;;1.20;;
71083;SDS011;58741;52.672;13.548;2023-02-01T01:49:07;12.27;;;1.25;;
71083;SDS011;58741;52.672;13.548;2023-02-01T01:51:38;1.45;;;1.27;;
71083;SDS011;58741;52.672;13.548;2023-02-01T01:54:28;1.77;;;0.90;;
71083;SDS011;58741;52.672;13.548;2023-02-01T01:57:00;4.07;;;1.20;;
71083;SDS011;58741;52.672;13.548;2023-02-01T01:59:29;6.32;;;1.80;;
71083;SDS011;58741;52.672;13.548;2023-02-01T02:01:57;10.02;;;1.15;;
71083;SDS011;58741;52.672;13.548;2023-02-01T02:04:23;1.17;;;0.88;;
71083;SDS011;58741;52.672;13.548;2023-02-01T02:06:54;1.35;;;0.88;;
71083;SDS011;58741;52.672;13.548;2023-02-01T02:09:26;2.28;;;1.00;;
71083;SDS011;58741;52.672;13.548;2023-02-01T02:11:52;4.40;;;1.75;;
71083;SDS011;58741;52.672;13.548;2023-02-01T02:14:18;10.88;;;1.75;;
71083;SDS011;58741;52.672;13.548;2023-02-01T02:19:55;6.43;;;1.73;;
71083;SDS011;58741;52.672;13.548;2023-02-01T02:31:00;2.83;;;1.40;;
71083;SDS011;58741;52.672;13.548;2023-02-01T02:36:22;4.32;;;1.33;;
71083;SDS011;58741;52.672;13.548;2023-02-01T02:41:43;5.70;;;1.92;;
71083;SDS011;58741;52.672;13.548;2023-02-01T02:50:29;13.45;;;1.58;;
71083;SDS011;58741;52.672;13.548;2023-02-01T02:53:21;12.52;;;1.88;;
71083;SDS011;58741;52.672;13.548;2023-02-01T02:56:16;4.35;;;1.65;;
71083;SDS011;58741;52.672;13.548;2023-02-01T02:59:04;4.28;;;1.23;;
71083;SDS011;58741;52.672;13.548;2023-02-01T03:01:50;3.63;;;1.38;;
71083;SDS011;58741;52.672;13.548;2023-02-01T03:04:36;9.57;;;1.42;;
71083;SDS011;58741;52.672;13.548;2023-02-01T03:07:45;4.95;;;1.00;;
71083;SDS011;58741;52.672;13.548;2023-02-01T03:10:11;4.93;;;1.70;;
71083;SDS011;58741;52.672;13.548;2023-02-01T03:12:45;6.47;;;1.77;;
71083;SDS011;58741;52.672;13.548;2023-02-01T03:15:20;9.82;;;1.88;;
71083;SDS011;58741;52.672;13.548;2023-02-01T03:18:11;4.15;;;0.82;;
71083;SDS011;58741;52.672;13.548;2023-02-01T03:20:44;4.78;;;1.48;;
71083;SDS011;58741;52.672;13.548;2023-02-01T03:23:13;3.50;;;1.23;;
71083;SDS011;58741;52.672;13.548;2023-02-01T03:25:40;7.22;;;1.15;;
71083;SDS011;58741;52.672;13.548;2023-02-01T03:28:07;3.50;;;1.27;;
71083;SDS011;58741;52.672;13.548;2023-02-01T03:30:38;12.35;;;1.55;;
71083;SDS011;58741;52.672;13.548;2023-02-01T03:33:08;4.53;;;1.40;;
71083;SDS011;58741;52.672;13.548;2023-02-01T03:36:02;16.92;;;2.08;;
71083;SDS011;58741;52.672;13.548;2023-02-01T03:38:49;4.97;;;1.30;;
71083;SDS011;58741;52.672;13.548;2023-02-01T03:44:13;6.53;;;1.63;;
71083;SDS011;58741;52.672;13.548;2023-02-01T03:46:47;2.58;;;0.90;;
71083;SDS011;58741;52.672;13.548;2023-02-01T03:49:18;6.90;;;1.77;;
71083;SDS011;58741;52.672;13.548;2023-02-01T03:52:02;10.73;;;1.88;;
71083;SDS011;58741;52.672;13.548;2023-02-01T03:54:31;17.40;;;2.22;;
71083;SDS011;58741;52.672;13.548;2023-02-01T03:56:59;1.17;;;0.73;;
71083;SDS011;58741;52.672;13.548;2023-02-01T03:59:28;8.52;;;1.48;;
71083;SDS011;58741;52.672;13.548;2023-02-01T04:01:53;7.78;;;2.25;;
71083;SDS011;58741;52.672;13.548;2023-02-01T04:04:19;10.52;;;1.50;;
71083;SDS011;58741;52.672;13.548;2023-02-01T04:06:47;7.15;;;1.38;;
71083;SDS011;58741;52.672;13.548;2023-02-01T04:09:13;7.32;;;0.88;;
71083;SDS011;58741;52.672;13.548;2023-02-01T04:11:39;3.63;;;1.17;;
71083;SDS011;58741;52.672;13.548;2023-02-01T04:14:04;5.78;;;1.58;;
71083;SDS011;58741;52.672;13.548;2023-02-01T04:16:30;5.90;;;1.77;;
71083;SDS011;58741;52.672;13.548;2023-02-01T04:18:57;5.00;;;1.65;;
71083;SDS011;58741;52.672;13.548;2023-02-01T04:21:24;4.00;;;0.93;;
71083;SDS011;58741;52.672;13.548;2023-02-01T04:23:50;2.45;;;1.02;;
71083;SDS011;58741;52.672;13.548;2023-02-01T04:26:16;2.63;;;1.17;;
71083;SDS011;58741;52.672;13.548;2023-02-01T04:28:42;13.60;;;2.30;;
71083;SDS011;58741;52.672;13.548;2023-02-01T04:31:07;2.42;;;0.93;;
71083;SDS011;58741;52.672;13.548;2023-02-01T04:33:33;7.63;;;1.60;;
71083;SDS011;58741;52.672;13.548;2023-02-01T04:35:59;2.47;;;0.70;;
71083;SDS011;58741;52.672;13.548;2023-02-01T04:38:24;6.72;;;1.80;;
71083;SDS011;58741;52.672;13.548;2023-02-01T04:40:50;12.07;;;2.05;;
71083;SDS011;58741;52.672;13.548;2023-02-01T04:43:16;2.85;;;1.02;;
71083;SDS011;58741;52.672;13.548;2023-02-01T04:45:46;3.35;;;1.50;;
71083;SDS011;58741;52.672;13.548;2023-02-01T04:48:13;10.65;;;1.27;;
71083;SDS011;58741;52.672;13.548;2023-02-01T04:50:38;5.07;;;1.50;;
71083;SDS011;58741;52.672;13.548;2023-02-01T04:53:04;13.35;;;1.80;;
71083;SDS011;58741;52.672;13.548;2023-02-01T04:55:29;2.83;;;1.55;;
71083;SDS011;58741;52.672;13.548;2023-02-01T04:57:55;6.35;;;1.65;;
71083;SDS011;58741;52.672;13.548;2023-02-01T05:00:21;6.25;;;1.95;;
71083;SDS011;58741;52.672;13.548;2023-02-01T05:02:47;4.03;;;1.45;;
71083;SDS011;58741;52.672;13.548;2023-02-01T05:05:13;2.70;;;1.20;;
71083;SDS011;58741;52.672;13.548;2023-02-01T05:07:38;7.03;;;1.85;;
71083;SDS011;58741;52.672;13.548;2023-02-01T05:10:04;16.10;;;2.05;;
71083;SDS011;58741;52.672;13.548;2023-02-01T05:12:30;11.85;;;1.88;;
71083;SDS011;58741;52.672;13.548;2023-02-01T05:15:14;6.38;;;2.15;;
71083;SDS011;58741;52.672;13.548;2023-02-01T05:17:39;5.18;;;1.77;;
71083;SDS011;58741;52.672;13.548;2023-02-01T05:20:06;9.05;;;2.13;;
71083;SDS011;58741;52.672;13.548;2023-02-01T05:22:32;3.13;;;1.58;;
71083;SDS011;58741;52.672;13.548;2023-02-01T05:24:58;3.33;;;1.20;;
71083;SDS011;58741;52.672;13.548;2023-02-01T05:27:23;6.82;;;1.30;;
71083;SDS011;58741;52.672;13.548;2023-02-01T05:29:49;15.65;;;1.95;;
71083;SDS011;58741;52.672;13.548;2023-02-01T05:32:14;7.47;;;1.77;;
71083;SDS011;58741;52.672;13.548;2023-02-01T05:34:40;9.75;;;2.00;;
71083;SDS011;58741;52.672;13.548;2023-02-01T05:37:05;3.15;;;1.30;;
71083;SDS011;58741;52.672;13.548;2023-02-01T05:39:31;6.55;;;1.85;;
71083;SDS011;58741;52.672;13.548;2023-02-01T05:41:57;6.28;;;1.58;;
71083;SDS011;58741;52.672;13.548;2023-02-01T05:44:22;6.13;;;1.98;;
71083;SDS011;58741;52.672;13.548;2023-02-01T05:46:48;11.30;;;1.35;;
71083;SDS011;58741;52.672;13.548;2023-02-01T05:49:13;10.18;;;1.20;;
71083;SDS011;58741;52.672;13.548;2023-02-01T05:51:39;8.38;;;1.30;;
71083;SDS011;58741;52.672;13.548;2023-02-01T05:54:04;10.23;;;1.45;;
71083;SDS011;58741;52.672;13.548;2023-02-01T05:56:30;5.28;;;1.55;;
71083;SDS011;58741;52.672;13.548;2023-02-01T05:58:55;3.47;;;1.10;;
71083;SDS011;58741;52.672;13.548;2023-02-01T06:01:21;9.98;;;2.00;;
71083;SDS011;58741;52.672;13.548;2023-02-01T06:03:47;7.93;;;1.95;;
71083;SDS011;58741;52.672;13.548;2023-02-01T06:06:12;7.65;;;2.05;;
71083;SDS011;58741;52.672;13.548;2023-02-01T06:08:38;7.32;;;1.98;;
71083;SDS011;58741;52.672;13.548;2023-02-01T06:11:05;3.10;;;1.45;;
71083;SDS011;58741;52.672;13.548;2023-02-01T06:13:31;5.57;;;1.35;;
71083;SDS011;58741;52.672;13.548;2023-02-01T06:15:57;4.15;;;1.52;;
71083;SDS011;58741;52.672;13.548;2023-02-01T06:18:24;1.77;;;1.10;;
71083;SDS011;58741;52.672;13.548;2023-02-01T06:20:53;4.25;;;1.75;;
71083;SDS011;58741;52.672;13.548;2023-02-01T06:23:20;5.60;;;1.83;;
71083;SDS011;58741;52.672;13.548;2023-02-01T06:25:52;11.75;;;2.45;;
71083;SDS011;58741;52.672;13.548;2023-02-01T06:28:18;3.47;;;1.58;;
71083;SDS011;58741;52.672;13.548;2023-02-01T06:30:43;4.07;;;1.05;;
71083;SDS011;58741;52.672;13.548;2023-02-01T06:33:12;15.02;;;2.17;;
71083;SDS011;58741;52.672;13.548;2023-02-01T06:35:40;2.65;;;1.30;;
71083;SDS011;58741;52.672;13.548;2023-02-01T06:38:07;4.43;;;1.45;;
71083;SDS011;58741;52.672;13.548;2023-02-01T06:40:32;15.45;;;2.20;;
71083;SDS011;58741;52.672;13.548;2023-02-01T06:42:58;10.52;;;1.33;;
71083;SDS011;58741;52.672;13.548;2023-02-01T06:45:24;4.88;;;1.20;;
71083;SDS011;58741;52.672;13.548;2023-02-01T06:47:49;7.85;;;1.83;;
71083;SDS011;58741;52.672;13.548;2023-02-01T06:50:15;7.28;;;1.63;;
71083;SDS011;58741;52.672;13.548;2023-02-01T06:52:41;1.38;;;1.05;;
71083;SDS011;58741;52.672;13.548;2023-02-01T06:55:07;14.85;;;2.47;;
71083;SDS011;58741;52.672;13.548;2023-02-01T06:57:32;5.30;;;1.70;;
71083;SDS011;58741;52.672;13.548;2023-02-01T06:59:59;5.45;;;1.52;;
71083;SDS011;58741;52.672;13.548;2023-02-01T07:02:25;11.65;;;2.05;;
71083;SDS011;58741;52.672;13.548;2023-02-01T07:04:50;2.70;;;0.85;;
71083;SDS011;58741;52.672;13.548;2023-02-01T07:07:16;4.55;;;2.17;;
71083;SDS011;58741;52.672;13.548;2023-02-01T07:09:44;9.13;;;2.05;;
71083;SDS011;58741;52.672;13.548;2023-02-01T07:12:10;2.83;;;1.10;;
71083;SDS011;58741;52.672;13.548;2023-02-01T07:14:35;4.03;;;1.13;;
71083;SDS011;58741;52.672;13.548;2023-02-01T07:17:01;2.45;;;1.33;;
71083;SDS011;58741;52.672;13.548;2023-02-01T07:19:26;3.67;;;1.27;;
71083;SDS011;58741;52.672;13.548;2023-02-01T07:21:52;2.00;;;1.05;;
71083;SDS011;58741;52.672;13.548;2023-02-01T07:24:18;5.63;;;1.08;;
71083;SDS011;58741;52.672;13.548;2023-02-01T07:26:43;4.13;;;1.73;;
71083;SDS011;58741;52.672;13.548;2023-02-01T07:29:09;2.50;;;1.20;;
71083;SDS011;58741;52.672;13.548;2023-02-01T07:31:34;6.40;;;1.45;;
71083;SDS011;58741;52.672;13.548;2023-02-01T07:34:00;2.67;;;1.15;;
71083;SDS011;58741;52.672;13.548;2023-02-01T07:36:27;8.95;;;1.63;;
71083;SDS011;58741;52.672;13.548;2023-02-01T07:38:53;0.98;;;0.65;;
71083;SDS011;58741;52.672;13.548;2023-02-01T07:41:19;8.48;;;1.30;;
71083;SDS011;58741;52.672;13.548;2023-02-01T07:43:45;6.60;;;1.33;;
71083;SDS011;58741;52.672;13.548;2023-02-01T07:46:11;11.18;;;1.58;;
71083;SDS011;58741;52.672;13.548;2023-02-01T07:48:36;4.75;;;1.17;;
71083;SDS011;58741;52.672;13.548;2023-02-01T07:51:06;5.68;;;1.67;;
71083;SDS011;58741;52.672;13.548;2023-02-01T07:53:34;5.53;;;1.27;;
71083;SDS011;58741;52.672;13.548;2023-02-01T07:56:00;2.95;;;0.98;;
71083;SDS011;58741;52.672;13.548;2023-02-01T07:58:27;12.43;;;1.48;;
71083;SDS011;58741;52.672;13.548;2023-02-01T08:00:53;6.22;;;1.90;;
71083;SDS011;58741;52.672;13.548;2023-02-01T08:03:38;3.58;;;1.55;;
71083;SDS011;58741;52.672;13.548;2023-02-01T08:06:04;8.65;;;1.40;;
71083;SDS011;58741;52.672;13.548;2023-02-01T08:08:31;5.15;;;2.03;;
71083;SDS011;58741;52.672;13.548;2023-02-01T08:11:00;7.15;;;2.08;;
71083;SDS011;58741;52.672;13.548;2023-02-01T08:13:28;6.13;;;2.20;;
71083;SDS011;58741;52.672;13.548;2023-02-01T08:15:57;4.25;;;1.42;;
71083;SDS011;58741;52.672;13.548;2023-02-01T08:18:24;7.05;;;1.30;;
71083;SDS011;58741;52.672;13.548;2023-02-01T08:20:50;2.53;;;1.00;;
71083;SDS011;58741;52.672;13.548;2023-02-01T08:23:16;2.95;;;1.65;;
71083;SDS011;58741;52.672;13.548;2023-02-01T08:25:42;1.40;;;0.93;;
71083;SDS011;58741;52.672;13.548;2023-02-01T08:28:08;2.35;;;0.60;;
71083;SDS011;58741;52.672;13.548;2023-02-01T08:30:36;1.90;;;0.90;;
71083;SDS011;58741;52.672;13.548;2023-02-01T08:33:03;2.28;;;1.48;;
71083;SDS011;58741;52.672;13.548;2023-02-01T08:35:31;4.93;;;1.10;;
71083;SDS011;58741;52.672;13.548;2023-02-01T08:37:56;1.30;;;1.00;;
71083;SDS011;58741;52.672;13.548;2023-02-01T08:40:22;1.65;;;1.17;;
71083;SDS011;58741;52.672;13.548;2023-02-01T08:42:48;1.85;;;0.82;;
71083;SDS011;58741;52.672;13.548;2023-02-01T08:45:21;0.50;;;0.50;;
71083;SDS011;58741;52.672;13.548;2023-02-01T08:47:52;2.43;;;1.17;;
71083;SDS011;58741;52.672;13.548;2023-02-01T08:50:18;0.85;;;0.80;;
71083;SDS011;58741;52.672;13.548;2023-02-01T08:52:45;1.45;;;0.73;;
71083;SDS011;58741;52.672;13.548;2023-02-01T08:55:11;3.55;;;1.08;;
71083;SDS011;58741;52.672;13.548;2023-02-01T08:57:38;1.40;;;0.73;;
71083;SDS011;58741;52.672;13.548;2023-02-01T09:00:05;1.02;;;0.55;;
71083;SDS011;58741;52.672;13.548;2023-02-01T09:02:33;2.67;;;1.30;;
71083;SDS011;58741;52.672;13.548;2023-02-01T09:04:59;1.38;;;1.00;;
71083;SDS011;58741;52.672;13.548;2023-02-01T09:07:25;3.63;;;1.40;;
71083;SDS011;58741;52.672;13.548;2023-02-01T09:09:50;1.63;;;0.70;;
71083;SDS011;58741;52.672;13.548;2023-02-01T09:12:16;0.80;;;0.65;;
71083;SDS011;58741;52.672;13.548;2023-02-01T09:14:41;0.68;;;0.55;;
71083;SDS011;58741;52.672;13.548;2023-02-01T09:17:07;0.88;;;0.70;;
71083;SDS011;58741;52.672;13.548;2023-02-01T09:19:32;2.15;;;0.68;;
71083;SDS011;58741;52.672;13.548;2023-02-01T09:21:58;1.48;;;0.90;;
71083;SDS011;58741;52.672;13.548;2023-02-01T09:24:24;1.55;;;0.88;;
71083;SDS011;58741;52.672;13.548;2023-02-01T09:26:50;2.58;;;1.30;;
71083;SDS011;58741;52.672;13.548;2023-02-01T09:29:16;1.00;;;0.60;;
71083;SDS011;58741;52.672;13.548;2023-02-01T09:31:42;0.77;;;0.70;;
71083;SDS011;58741;52.672;13.548;2023-02-01T09:34:07;3.17;;;0.80;;
71083;SDS011;58741;52.672;13.548;2023-02-01T09:36:34;0.80;;;0.75;;
71083;SDS011;58741;52.672;13.548;2023-02-01T09:39:00;2.65;;;0.82;;
71083;SDS011;58741;52.672;13.548;2023-02-01T09:46:54;0.70;;;0.50;;
71083;SDS011;58741;52.672;13.548;2023-02-01T09:49:26;1.33;;;0.80;;
71083;SDS011;58741;52.672;13.548;2023-02-01T09:51:59;1.30;;;0.60;;
71083;SDS011;58741;52.672;13.548;2023-02-01T09:54:37;5.88;;;0.38;;
71083;SDS011;58741;52.672;13.548;2023-02-01T09:57:46;2.30;;;0.95;;
71083;SDS011;58741;52.672;13.548;2023-02-01T10:00:17;1.73;;;0.40;;
71083;SDS011;58741;52.672;13.548;2023-02-01T10:02:50;0.32;;;0.30;;
71083;SDS011;58741;52.672;13.548;2023-02-01T10:05:17;0.73;;;0.73;;
71083;SDS011;58741;52.672;13.548;2023-02-01T10:08:09;5.60;;;0.60;;
71083;SDS011;58741;52.672;13.548;2023-02-01T10:10:45;1.17;;;0.63;;
71083;SDS011;58741;52.672;13.548;2023-02-01T10:13:23;0.70;;;0.38;;
71083;SDS011;58741;52.672;13.548;2023-02-01T10:22:08;0.85;;;0.57;;
71083;SDS011;58741;52.672;13.548;2023-02-01T10:24:37;1.77;;;0.73;;
71083;SDS011;58741;52.672;13.548;2023-02-01T10:29:41;0.57;;;0.40;;
71083;SDS011;58741;52.672;13.548;2023-02-01T10:32:12;3.22;;;0.40;;
71083;SDS011;58741;52.672;13.548;2023-02-01T10:34:39;1.75;;;0.70;;
71083;SDS011;58741;52.672;13.548;2023-02-01T10:39:56;3.67;;;0.80;;
71083;SDS011;58741;52.672;13.548;2023-02-01T10:42:27;3.13;;;0.60;;
71083;SDS011;58741;52.672;13.548;2023-02-01T10:44:54;3.58;;;1.02;;
71083;SDS011;58741;52.672;13.548;2023-02-01T10:47:22;1.70;;;0.68;;
71083;SDS011;58741;52.672;13.548;2023-02-01T10:57:57;2.00;;;0.60;;
71083;SDS011;58741;52.672;13.548;2023-02-01T11:00:25;1.05;;;0.88;;
71083;SDS011;58741;52.672;13.548;2023-02-01T11:02:52;2.58;;;0.90;;
71083;SDS011;58741;52.672;13.548;2023-02-01T11:05:19;2.10;;;0.47;;
71083;SDS011;58741;52.672;13.548;2023-02-01T11:07:51;1.00;;;0.52;;
71083;SDS011;58741;52.672;13.548;2023-02-01T11:10:36;0.80;;;0.65;;
71083;SDS011;58741;52.672;13.548;2023-02-01T11:13:11;5.10;;;0.75;;
71083;SDS011;58741;52.672;13.548;2023-02-01T11:15:46;0.80;;;0.60;;
71083;SDS011;58741;52.672;13.548;2023-02-01T11:18:25;8.60;;;0.93;;
71083;SDS011;58741;52.672;13.548;2023-02-01T11:20:53;4.22;;;0.98;;
71083;SDS011;58741;52.672;13.548;2023-02-01T11:23:21;1.20;;;0.93;;
71083;SDS011;58741;52.672;13.548;2023-02-01T11:25:51;1.52;;;0.65;;
71083;SDS011;58741;52.672;13.548;2023-02-01T11:28:19;4.18;;;1.02;;
71083;SDS011;58741;52.672;13.548;2023-02-01T11:30:48;1.63;;;0.95;;
71083;SDS011;58741;52.672;13.548;2023-02-01T11:33:18;1.52;;;0.85;;
71083;SDS011;58741;52.672;13.548;2023-02-01T11:35:45;6.45;;;0.68;;
71083;SDS011;58741;52.672;13.548;2023-02-01T11:38:26;0.90;;;0.82;;
71083;SDS011;58741;52.672;13.548;2023-02-01T11:40:54;3.00;;;0.88;;
71083;SDS011;58741;52.672;13.548;2023-02-01T11:43:27;0.63;;;0.63;;
71083;SDS011;58741;52.672;13.548;2023-02-01T11:46:00;3.53;;;1.05;;
71083;SDS011;58741;52.672;13.548;2023-02-01T11:48:28;2.08;;;0.77;;
71083;SDS011;58741;52.672;13.548;2023-02-01T11:51:20;0.98;;;0.98;;
71083;SDS011;58741;52.672;13.548;2023-02-01T11:54:10;1.65;;;1.00;;
71083;SDS011;58741;52.672;13.548;2023-02-01T11:56:57;3.90;;;0.95;;
71083;SDS011;58741;52.672;13.548;2023-02-01T12:02:30;3.35;;;1.15;;
71083;SDS011;58741;52.672;13.548;2023-02-01T12:05:08;11.48;;;1.25;;
71083;SDS011;58741;52.672;13.548;2023-02-01T12:08:05;2.28;;;1.02;;
71083;SDS011;58741;52.672;13.548;2023-02-01T12:10:43;0.82;;;0.60;;
71083;SDS011;58741;52.672;13.548;2023-02-01T12:32:07;8.85;;;1.27;;
71083;SDS011;58741;52.672;13.548;2023-02-01T12:43:18;1.52;;;0.77;;
71083;SDS011;58741;52.672;13.548;2023-02-01T12:45:55;1.35;;;0.80;;
71083;SDS011;58741;52.672;13.548;2023-02-01T12:48:51;4.70;;;0.75;;
71083;SDS011;58741;52.672;13.548;2023-02-01T12:51:26;1.95;;;0.60;;
71083;SDS011;58741;52.672;13.548;2023-02-01T12:54:19;0.38;;;0.38;;
71083;SDS011;58741;52.672;13.548;2023-02-01T12:56:47;3.63;;;0.52;;
71083;SDS011;58741;52.672;13.548;2023-02-01T13:01:58;1.50;;;0.35;;
71083;SDS011;58741;52.672;13.548;2023-02-01T13:04:36;0.77;;;0.32;;
71083;SDS011;58741;52.672;13.548;2023-02-01T13:07:25;0.30;;;0.30;;
71083;SDS011;58741;52.672;13.548;2023-02-01T13:10:11;0.20;;;0.20;;
71083;SDS011;58741;52.672;13.548;2023-02-01T13:15:39;2.65;;;0.22;;
71083;SDS011;58741;52.672;13.548;2023-02-01T13:18:10;0.43;;;0.40;;
71083;SDS011;58741;52.672;13.548;2023-02-01T13:20:53;0.50;;;0.43;;
71083;SDS011;58741;52.672;13.548;2023-02-01T13:23:45;0.20;;;0.20;;
71083;SDS011;58741;52.672;13.548;2023-02-01T13:26:11;0.73;;;0.40;;
71083;SDS011;58741;52.672;13.548;2023-02-01T13:37:22;1.30;;;0.10;;
71083;SDS011;58741;52.672;13.548;2023-02-01T13:40:10;0.47;;;0.47;;
71083;SDS011;58741;52.672;13.548;2023-02-01T13:42:53;1.00;;;0.43;;
71083;SDS011;58741;52.672;13.548;2023-02-01T13:45:23;0.28;;;0.28;;
71083;SDS011;58741;52.672;13.548;2023-02-01T13:47:53;0.25;;;0.25;;
71083;SDS011;58741;52.672;13.548;2023-02-01T13:53:13;0.47;;;0.47;;
71083;SDS011;58741;52.672;13.548;2023-02-01T13:55:43;1.65;;;0.88;;
71083;SDS011;58741;52.672;13.548;2023-02-01T13:58:18;2.22;;;1.20;;
71083;SDS011;58741;52.672;13.548;2023-02-01T14:00:47;2.00;;;0.65;;
71083;SDS011;58741;52.672;13.548;2023-02-01T14:03:22;0.52;;;0.52;;
71083;SDS011;58741;52.672;13.548;2023-02-01T14:06:53;2.50;;;0.52;;
71083;SDS011;58741;52.672;13.548;2023-02-01T14:11:51;1.73;;;0.43;;
71083;SDS011;58741;52.672;13.548;2023-02-01T14:19:30;2.47;;;1.38;;
71083;SDS011;58741;52.672;13.548;2023-02-01T14:21:58;2.35;;;1.13;;
71083;SDS011;58741;52.672;13.548;2023-02-01T14:24:35;0.88;;;0.57;;
71083;SDS011;58741;52.672;13.548;2023-02-01T14:27:16;1.35;;;0.47;;
71083;SDS011;58741;52.672;13.548;2023-02-01T14:29:50;0.35;;;0.35;;
71083;SDS011;58741;52.672;13.548;2023-02-01T14:32:24;2.63;;;1.40;;
71083;SDS011;58741;52.672;13.548;2023-02-01T14:34:56;2.55;;;1.35;;
71083;SDS011;58741;52.672;13.548;2023-02-01T14:37:27;3.33;;;1.52;;
71083;SDS011;58741;52.672;13.548;2023-02-01T14:39:59;8.25;;;1.55;;
71083;SDS011;58741;52.672;13.548;2023-02-01T14:55:45;3.45;;;1.15;;
71083;SDS011;58741;52.672;13.548;2023-02-01T14:58:41;2.65;;;1.02;;
71083;SDS011;58741;52.672;13.548;2023-02-01T15:01:21;4.78;;;1.00;;
71083;SDS011;58741;52.672;13.548;2023-02-01T15:06:31;2.47;;;1.05;;
71083;SDS011;58741;52.672;13.548;2023-02-01T15:14:40;7.18;;;1.13;;
71083;SDS011;58741;52.672;13.548;2023-02-01T15:17:31;3.83;;;1.00;;
71083;SDS011;58741;52.672;13.548;2023-02-01T15:20:14;4.57;;;1.10;;
71083;SDS011;58741;52.672;13.548;2023-02-01T15:22:42;5.47;;;1.90;;
71083;SDS011;58741;52.672;13.548;2023-02-01T15:25:18;1.42;;;1.02;;
71083;SDS011;58741;52.672;13.548;2023-02-01T15:27:46;2.08;;;1.05;;
71083;SDS011;58741;52.672;13.548;2023-02-01T15:30:19;3.03;;;1.33;;
71083;SDS011;58741;52.672;13.548;2023-02-01T15:32:47;3.78;;;1.17;;
71083;SDS011;58741;52.672;13.548;2023-02-01T15:43:24;3.90;;;0.98;;
71083;SDS011;58741;52.672;13.548;2023-02-01T15:45:50;3.75;;;1.10;;
71083;SDS011;58741;52.672;13.548;2023-02-01T15:48:21;1.95;;;0.60;;
71083;SDS011;58741;52.672;13.548;2023-02-01T15:50:50;3.13;;;1.00;;
71083;SDS011;58741;52.672;13.548;2023-02-01T15:53:18;2.20;;;0.45;;
71083;SDS011;58741;52.672;13.548;2023-02-01T15:55:46;2.75;;;0.82;;
71083;SDS011;58741;52.672;13.548;2023-02-01T15:58:19;4.38;;;1.08;;
71083;SDS011;58741;52.672;13.548;2023-02-01T16:00:47;0.85;;;0.65;;
71083;SDS011;58741;52.672;13.548;2023-02-01T16:03:26;1.27;;;0.60;;
71083;SDS011;58741;52.672;13.548;2023-02-01T16:05:58;0.35;;;0.35;;
71083;SDS011;58741;52.672;13.548;2023-02-01T16:08:26;0.57;;;0.57;;
71083;SDS011;58741;52.672;13.548;2023-02-01T16:13:35;0.70;;;0.52;;
71083;SDS011;58741;52.672;13.548;2023-02-01T16:16:01;0.50;;;0.50;;
71083;SDS011;58741;52.672;13.548;2023-02-01T16:18:27;0.90;;;0.40;;
71083;SDS011;58741;52.672;13.548;2023-02-01T16:20:52;3.25;;;0.50;;
71083;SDS011;58741;52.672;13.548;2023-02-01T16:23:18;0.43;;;0.43;;
71083;SDS011;58741;52.672;13.548;2023-02-01T16:25:45;0.30;;;0.30;;
71083;SDS011;58741;52.672;13.548;2023-02-01T16:28:11;0.52;;;0.52;;
71083;SDS011;58741;52.672;13.548;2023-02-01T16:30:37;0.50;;;0.40;;
71083;SDS011;58741;52.672;13.548;2023-02-01T16:33:03;0.93;;;0.47;;
71083;SDS011;58741;52.672;13.548;2023-02-01T16:38:01;1.33;;;0.95;;
71083;SDS011;58741;52.672;13.548;2023-02-01T16:40:40;3.38;;;1.98;;
71083;SDS011;58741;52.672;13.548;2023-02-01T16:43:11;2.58;;;0.85;;
71083;SDS011;58741;52.672;13.548;2023-02-01T16:45:38;2.17;;;0.90;;
71083;SDS011;58741;52.672;13.548;2023-02-01T16:48:05;0.60;;;0.50;;
71083;SDS011;58741;52.672;13.548;2023-02-01T16:50:31;0.73;;;0.63;;
71083;SDS011;58741;52.672;13.548;2023-02-01T16:52:58;3.00;;;0.98;;
71083;SDS011;58741;52.672;13.548;2023-02-01T16:55:24;0.55;;;0.55;;
71083;SDS011;58741;52.672;13.548;2023-02-01T16:57:50;3.03;;;0.60;;
71083;SDS011;58741;52.672;13.548;2023-02-01T17:00:16;0.60;;;0.60;;
71083;SDS011;58741;52.672;13.548;2023-02-01T17:02:42;1.50;;;1.00;;
71083;SDS011;58741;52.672;13.548;2023-02-01T17:05:10;0.88;;;0.77;;
71083;SDS011;58741;52.672;13.548;2023-02-01T17:07:36;2.63;;;1.63;;
71083;SDS011;58741;52.672;13.548;2023-02-01T17:10:04;1.42;;;0.88;;
71083;SDS011;58741;52.672;13.548;2023-02-01T17:12:31;1.35;;;0.57;;
71083;SDS011;58741;52.672;13.548;2023-02-01T17:14:58;0.70;;;0.50;;